Time;durP1;ratioP1;P1;durP2;ratioP2;P2;SDS_P1;SDS_P2;PMS_P1;PMS_P2;Temp;Humidity;BMP_temperature;BMP_pressure;BME280_temperature;BME280_humidity;BME280_pressure;Samples;Min_cycle;Max_cycle;Signal;HPM_P1;HPM_P2
2022/08/20 00:03:51;;;;;;;15.07;13.48;;;27.70;57.70;;;;;;4943463;52;20984;-33
2022/08/20 00:08:52;;;;;;;15.27;13.15;;;27.70;57.80;;;;;;4921265;52;20996;-36
2022/08/20 00:13:56;;;;;;;15.05;12.95;;;27.70;57.70;;;;;;4921047;52;21552;-38
2022/08/20 00:19:02;;;;;;;14.57;12.90;;;27.70;57.80;;;;;;4910050;56;21482;-32
2022/08/20 00:24:04;;;;;;;18.58;13.77;;;27.70;57.80;;;;;;4927243;52;21044;-25
2022/08/20 00:29:05;;;;;;;15.30;12.85;;;27.70;57.80;;;;;;4909730;56;21031;-28
2022/08/20 00:34:06;;;;;;;14.77;13.18;;;27.70;57.80;;;;;;4935909;52;21003;-25
2022/08/20 00:39:07;;;;;;;14.05;12.45;;;27.70;57.80;;;;;;4985524;52;21014;-24
2022/08/20 00:44:18;;;;;;;14.80;13.25;;;27.70;57.80;;;;;;4944970;52;20995;-26
2022/08/20 00:49:28;;;;;;;16.10;13.30;;;27.70;57.80;;;;;;4909827;52;21094;-36
2022/08/20 00:54:36;;;;;;;15.40;12.73;;;27.70;57.80;;;;;;4930271;52;21521;-31
2022/08/20 00:59:41;;;;;;;14.30;12.80;;;27.70;57.90;;;;;;4936107;52;20991;-36
2022/08/20 01:04:53;;;;;;;15.50;13.10;;;27.70;57.90;;;;;;4940022;52;21103;-36
2022/08/20 01:09:54;;;;;;;15.38;12.63;;;27.70;57.90;;;;;;4919369;52;21584;-35
2022/08/20 01:14:57;;;;;;;14.32;12.23;;;27.70;58.00;;;;;;4920373;52;21024;-33
2022/08/20 01:20:10;;;;;;;15.07;12.40;;;27.70;58.00;;;;;;4910000;53;21557;-30
2022/08/20 01:25:20;;;;;;;13.55;12.15;;;27.70;57.90;;;;;;4956630;52;21014;-37
2022/08/20 01:30:22;;;;;;;14.27;12.77;;;27.70;58.10;;;;;;4961884;52;21011;-36
2022/08/20 01:35:24;;;;;;;13.62;11.77;;;27.70;58.00;;;;;;4938397;52;21090;-27
2022/08/20 01:40:50;;;;;;;13.68;11.68;;;27.70;58.00;;;;;;4949222;52;21007;-35
2022/08/20 01:45:52;;;;;;;12.90;11.43;;;27.70;58.10;;;;;;4915430;52;21015;-33
2022/08/20 01:51:07;;;;;;;13.73;12.18;;;27.70;58.00;;;;;;4959400;52;21066;-37
2022/08/20 01:56:13;;;;;;;12.45;11.23;;;27.70;58.00;;;;;;4920134;52;20975;-37
2022/08/20 02:01:26;;;;;;;12.70;11.40;;;27.70;58.10;;;;;;4936648;52;21033;-35
2022/08/20 02:06:29;;;;;;;12.77;10.95;;;27.70;58.10;;;;;;4909780;56;21533;-37
2022/08/20 02:11:33;;;;;;;13.48;11.07;;;27.70;58.10;;;;;;4940526;52;21083;-38
2022/08/20 02:16:37;;;;;;;13.65;11.57;;;27.70;58.20;;;;;;4933275;52;20995;-38
2022/08/20 02:21:50;;;;;;;12.75;11.38;;;27.70;58.10;;;;;;5011749;52;20984;-38
2022/08/20 02:26:51;;;;;;;15.88;11.82;;;27.70;58.20;;;;;;4927680;52;20984;-27
2022/08/20 02:31:53;;;;;;;12.60;11.30;;;27.70;58.10;;;;;;4911896;52;21509;-37
2022/08/20 02:36:55;;;;;;;13.73;11.10;;;27.70;58.20;;;;;;4909877;56;20987;-28
2022/08/20 02:41:57;;;;;;;12.20;10.85;;;27.70;58.20;;;;;;4914889;52;20964;-39
2022/08/20 02:46:59;;;;;;;12.07;10.75;;;27.70;58.20;;;;;;4926560;52;21051;-25
2022/08/20 02:51:59;;;;;;;12.15;10.80;;;27.70;58.20;;;;;;4916130;52;21004;-31
2022/08/20 02:57:03;;;;;;;12.40;10.30;;;27.70;58.30;;;;;;4911128;52;21030;-25
2022/08/20 03:02:03;;;;;;;12.20;10.93;;;27.70;58.30;;;;;;4924705;52;21541;-37
2022/08/20 03:07:06;;;;;;;13.00;10.70;;;27.70;58.40;;;;;;4986053;52;21042;-26
2022/08/20 03:12:07;;;;;;;12.73;11.12;;;27.70;58.40;;;;;;4956578;52;21043;-35
2022/08/20 03:17:07;;;;;;;15.63;11.52;;;27.70;58.40;;;;;;5005983;52;22273;-36
2022/08/20 03:22:08;;;;;;;12.63;11.32;;;27.70;58.50;;;;;;4919181;52;20991;-25
2022/08/20 03:27:11;;;;;;;12.25;10.45;;;27.70;58.50;;;;;;4935143;52;21038;-36
2022/08/20 03:32:12;;;;;;;14.02;10.70;;;27.70;58.50;;;;;;4927730;52;21007;-27
2022/08/20 03:37:13;;;;;;;11.68;10.32;;;27.70;58.60;;;;;;4913279;52;21482;-35
2022/08/20 03:42:14;;;;;;;13.18;10.40;;;27.70;58.60;;;;;;4931541;52;21015;-36
2022/08/20 03:47:15;;;;;;;12.88;10.88;;;27.70;58.80;;;;;;4921858;52;21022;-34
2022/08/20 03:52:16;;;;;;;13.80;11.15;;;27.70;58.70;;;;;;4914356;52;21003;-28
2022/08/20 03:57:17;;;;;;;13.88;10.23;;;27.70;58.70;;;;;;4931477;52;21974;-34
2022/08/20 04:02:18;;;;;;;13.48;11.12;;;27.70;58.80;;;;;;4910119;56;21103;-28
2022/08/20 04:07:26;;;;;;;12.37;10.07;;;27.70;58.80;;;;;;4913216;52;21119;-36
2022/08/20 04:12:27;;;;;;;15.60;10.07;;;27.70;58.80;;;;;;4918819;52;21097;-24
2022/08/20 04:17:28;;;;;;;13.48;10.73;;;27.70;58.90;;;;;;4946527;52;20987;-41
2022/08/20 04:22:29;;;;;;;14.40;10.32;;;27.70;59.00;;;;;;4947463;52;20980;-35
2022/08/20 04:27:31;;;;;;;14.60;10.95;;;27.70;59.00;;;;;;4918417;52;21003;-33
2022/08/20 04:32:35;;;;;;;15.43;11.05;;;27.70;59.00;;;;;;4932479;52;21564;-29
2022/08/20 04:37:40;;;;;;;12.27;10.10;;;27.70;59.00;;;;;;4909856;56;21514;-37
2022/08/20 04:42:41;;;;;;;14.35;9.98;;;27.70;58.90;;;;;;4931568;52;21003;-35
2022/08/20 04:47:42;;;;;;;14.93;9.95;;;27.70;59.10;;;;;;4923780;52;21038;-33
2022/08/20 04:52:43;;;;;;;13.07;9.80;;;27.70;59.00;;;;;;4910288;53;20996;-32
2022/08/20 04:57:44;;;;;;;13.88;10.15;;;27.70;59.00;;;;;;4933498;52;20979;-32
2022/08/20 05:02:45;;;;;;;16.05;10.52;;;27.70;59.00;;;;;;4939002;52;21568;-25
2022/08/20 05:07:47;;;;;;;12.80;10.15;;;27.70;58.70;;;;;;4967176;52;21038;-32
2022/08/20 05:12:48;;;;;;;13.55;10.13;;;27.70;59.10;;;;;;4931246;52;21071;-38
2022/08/20 05:18:06;;;;;;;14.65;10.32;;;27.70;59.10;;;;;;4911032;52;21050;-38
2022/08/20 05:23:10;;;;;;;14.45;10.40;;;27.70;59.10;;;;;;4998214;52;21489;-39
2022/08/20 05:28:31;;;;;;;13.65;10.02;;;27.70;59.10;;;;;;4932145;52;21055;-38
2022/08/20 05:33:32;;;;;;;13.50;10.60;;;27.70;59.20;;;;;;4938955;52;21553;-37
2022/08/20 05:38:35;;;;;;;15.82;10.45;;;27.70;59.20;;;;;;4911041;56;21054;-36
2022/08/20 05:43:35;;;;;;;13.88;10.55;;;27.70;59.40;;;;;;4912439;52;21015;-38
2022/08/20 05:48:36;;;;;;;14.23;10.57;;;27.70;59.30;;;;;;4980688;52;21532;-35
2022/08/20 05:53:37;;;;;;;16.37;11.07;;;27.70;59.20;;;;;;4925023;52;20987;-38
2022/08/20 05:58:38;;;;;;;12.70;10.23;;;27.70;59.30;;;;;;4980965;52;21019;-29
2022/08/20 06:08:58;;;;;;;17.62;11.57;;;27.70;59.30;;;;;;4909319;52;21003;-33
2022/08/20 06:13:59;;;;;;;15.32;11.52;;;27.70;59.30;;;;;;4913260;52;21093;-36
2022/08/20 06:19:01;;;;;;;15.45;11.35;;;27.70;59.40;;;;;;4966505;52;21043;-35
2022/08/20 06:24:03;;;;;;;16.85;11.73;;;27.70;59.40;;;;;;4927386;52;20991;-25
2022/08/20 06:29:06;;;;;;;15.85;12.13;;;27.70;59.40;;;;;;4919640;52;21042;-25
2022/08/20 06:34:07;;;;;;;17.45;12.55;;;27.70;59.40;;;;;;4930028;52;21051;-27
2022/08/20 06:39:08;;;;;;;16.87;11.82;;;27.70;59.40;;;;;;4909955;56;20988;-37
2022/08/20 06:44:09;;;;;;;16.92;12.68;;;27.70;59.50;;;;;;4912745;52;21477;-34
2022/08/20 06:49:10;;;;;;;16.70;12.32;;;27.70;59.50;;;;;;4938953;52;21643;-35
2022/08/20 06:54:11;;;;;;;17.55;13.20;;;27.70;59.20;;;;;;4954294;52;20999;-35
2022/08/20 06:59:12;;;;;;;17.20;12.43;;;27.70;59.50;;;;;;4932935;52;20976;-34
2022/08/20 07:04:14;;;;;;;19.92;13.07;;;27.70;59.50;;;;;;4909846;56;20983;-40
2022/08/20 07:09:15;;;;;;;20.83;13.00;;;27.70;59.50;;;;;;4928343;52;21484;-30
2022/08/20 07:14:16;;;;;;;16.90;12.68;;;27.70;59.60;;;;;;4907641;56;21008;-34
2022/08/20 07:19:17;;;;;;;17.17;13.05;;;27.70;59.60;;;;;;4919065;52;21525;-32
2022/08/20 07:24:18;;;;;;;19.30;13.15;;;27.70;59.60;;;;;;4958825;52;20983;-34
2022/08/20 07:29:19;;;;;;;18.83;13.70;;;27.70;59.60;;;;;;4912339;52;21051;-37
2022/08/20 07:34:19;;;;;;;22.25;14.77;;;27.70;59.60;;;;;;4915524;52;21062;-37
2022/08/20 07:39:20;;;;;;;19.83;14.77;;;27.70;59.70;;;;;;4931176;52;20975;-32
2022/08/20 07:44:21;;;;;;;20.62;15.15;;;27.70;60.10;;;;;;4968191;52;21050;-31
2022/08/20 07:49:22;;;;;;;21.75;15.35;;;27.70;59.70;;;;;;4928477;52;21034;-35
2022/08/20 07:54:23;;;;;;;20.67;15.20;;;27.70;59.70;;;;;;4917236;52;21540;-33
2022/08/20 07:59:24;;;;;;;18.40;15.77;;;27.70;59.70;;;;;;4913428;52;21018;-30
2022/08/20 08:04:25;;;;;;;20.25;16.15;;;27.70;59.70;;;;;;4986791;52;20995;-27
2022/08/20 08:09:27;;;;;;;23.60;15.68;;;27.70;59.70;;;;;;4909118;52;21008;-27
2022/08/20 08:14:31;;;;;;;24.35;16.80;;;27.70;59.70;;;;;;4931711;52;21505;-36
2022/08/20 08:19:38;;;;;;;21.77;15.93;;;27.70;59.70;;;;;;4954222;52;22456;-35
2022/08/20 08:24:42;;;;;;;21.40;16.10;;;27.70;59.70;;;;;;4910245;56;20975;-35
2022/08/20 08:29:44;;;;;;;22.70;16.00;;;27.70;59.70;;;;;;4919361;52;21482;-30
2022/08/20 08:34:46;;;;;;;23.77;16.80;;;27.70;59.70;;;;;;4909564;56;21731;-35
2022/08/20 08:39:50;;;;;;;21.08;15.00;;;27.70;59.70;;;;;;4910764;52;21063;-28
2022/08/20 08:44:53;;;;;;;20.25;15.25;;;27.70;59.70;;;;;;4921289;52;20972;-36
2022/08/20 08:49:56;;;;;;;21.42;14.70;;;27.70;59.70;;;;;;4921259;52;22141;-30
2022/08/20 08:55:02;;;;;;;20.75;15.40;;;27.70;59.70;;;;;;4952199;52;21509;-30
2022/08/20 09:00:14;;;;;;;20.98;15.57;;;27.70;59.80;;;;;;4966517;52;21480;-30
2022/08/20 09:05:19;;;;;;;20.50;16.75;;;27.70;59.80;;;;;;4925296;52;21532;-34
2022/08/20 09:10:20;;;;;;;23.65;16.42;;;27.70;59.80;;;;;;4932952;52;21509;-35
2022/08/20 09:15:21;;;;;;;22.73;16.83;;;27.70;59.80;;;;;;4918532;52;21422;-29
2022/08/20 09:20:22;;;;;;;23.08;16.37;;;27.70;59.80;;;;;;4913763;52;21023;-33
2022/08/20 09:25:23;;;;;;;20.88;16.67;;;27.70;59.80;;;;;;4909963;56;21051;-35
2022/08/20 09:30:24;;;;;;;20.10;16.42;;;27.70;59.80;;;;;;4976705;52;21090;-31
2022/08/20 09:35:26;;;;;;;22.52;17.17;;;27.70;59.80;;;;;;4947729;52;20995;-25
2022/08/20 09:40:26;;;;;;;23.70;17.27;;;27.70;59.80;;;;;;4946272;52;21054;-33
2022/08/20 09:45:27;;;;;;;22.05;16.40;;;27.70;59.80;;;;;;4910249;56;20994;-30
2022/08/20 09:50:32;;;;;;;23.02;17.00;;;27.70;59.80;;;;;;4908821;56;21043;-36
2022/08/20 09:55:42;;;;;;;19.70;15.88;;;27.70;59.80;;;;;;4910303;56;21076;-32
2022/08/20 10:00:42;;;;;;;24.63;18.20;;;27.70;59.70;;;;;;4981458;52;20999;-29
2022/08/20 10:05:43;;;;;;;21.48;16.55;;;27.70;59.70;;;;;;4912521;52;21059;-30
2022/08/20 10:10:44;;;;;;;20.27;16.12;;;27.70;59.70;;;;;;4908601;56;21517;-31
2022/08/20 10:15:45;;;;;;;21.42;16.40;;;27.70;60.30;;;;;;4909654;56;20987;-33
2022/08/20 10:20:46;;;;;;;22.77;16.67;;;27.70;59.70;;;;;;4910046;53;21034;-32
2022/08/20 10:25:47;;;;;;;23.92;17.55;;;27.70;59.70;;;;;;4929142;52;21011;-32
2022/08/20 10:30:47;;;;;;;23.80;16.87;;;27.70;59.80;;;;;;4938486;52;21030;-35
2022/08/20 10:35:48;;;;;;;20.98;16.55;;;27.70;59.70;;;;;;4931160;52;21084;-30
2022/08/20 10:40:49;;;;;;;22.00;17.25;;;27.70;59.70;;;;;;4915527;52;21004;-27
2022/08/20 10:45:50;;;;;;;21.50;16.17;;;27.70;59.70;;;;;;4932010;52;21457;-30
2022/08/20 10:50:51;;;;;;;19.73;16.98;;;27.70;59.70;;;;;;4970633;52;21006;-31
2022/08/20 10:55:53;;;;;;;22.40;16.58;;;27.70;59.70;;;;;;4909867;56;20963;-26
2022/08/20 11:00:54;;;;;;;19.75;15.95;;;27.70;59.70;;;;;;4918580;52;21051;-26
2022/08/20 11:05:55;;;;;;;23.38;16.77;;;27.70;59.70;;;;;;4923362;52;20992;-28
2022/08/20 11:10:56;;;;;;;21.83;16.35;;;27.70;59.70;;;;;;4913811;52;21062;-30
2022/08/20 11:15:56;;;;;;;21.98;16.90;;;27.70;59.70;;;;;;4959826;52;21516;-35
2022/08/20 11:20:57;;;;;;;22.13;16.35;;;27.70;59.70;;;;;;4952808;52;21505;-34
2022/08/20 11:25:58;;;;;;;18.98;16.27;;;27.70;59.70;;;;;;4914728;52;21446;-26
2022/08/20 11:31:00;;;;;;;19.45;15.77;;;27.70;59.60;;;;;;4908804;56;21015;-33
2022/08/20 11:36:01;;;;;;;18.75;15.25;;;27.70;59.60;;;;;;4923644;52;20991;-36
2022/08/20 11:41:02;;;;;;;20.30;15.77;;;27.70;59.60;;;;;;4930705;52;20987;-31
2022/08/20 11:46:02;;;;;;;19.77;16.12;;;27.70;59.60;;;;;;4936128;52;21070;-25
2022/08/20 11:51:04;;;;;;;20.17;16.40;;;27.70;59.60;;;;;;4952241;52;20999;-35
2022/08/20 11:56:07;;;;;;;21.98;16.37;;;27.70;59.60;;;;;;4922686;52;21561;-25
2022/08/20 12:01:08;;;;;;;21.40;16.33;;;27.70;59.60;;;;;;4930132;52;21012;-36
2022/08/20 12:06:09;;;;;;;23.70;16.83;;;27.70;59.50;;;;;;4957477;52;21537;-35
2022/08/20 12:11:09;;;;;;;23.87;16.12;;;27.70;59.60;;;;;;4908750;56;21073;-31
2022/08/20 12:16:10;;;;;;;21.30;16.02;;;27.70;59.50;;;;;;4985428;52;20976;-38
2022/08/20 12:21:11;;;;;;;20.37;16.05;;;27.70;59.50;;;;;;4950785;52;20996;-36
2022/08/20 12:26:12;;;;;;;18.45;15.38;;;27.70;59.50;;;;;;4940430;52;20979;-34
2022/08/20 12:31:13;;;;;;;19.05;15.13;;;27.70;59.50;;;;;;4952314;52;20983;-39
2022/08/20 12:36:14;;;;;;;20.98;16.35;;;27.70;59.50;;;;;;4950615;52;20983;-32
2022/08/20 12:41:18;;;;;;;19.30;16.48;;;27.70;59.50;;;;;;4915954;52;21050;-30
2022/08/20 12:46:18;;;;;;;20.42;15.85;;;27.70;59.50;;;;;;4931345;52;21349;-33
2022/08/20 12:51:19;;;;;;;23.80;16.87;;;27.70;59.40;;;;;;4919763;52;21015;-29
2022/08/20 12:56:20;;;;;;;19.70;16.10;;;27.70;59.40;;;;;;4911240;52;21077;-32
2022/08/20 13:01:21;;;;;;;20.50;15.68;;;27.70;59.40;;;;;;4922706;52;20987;-33
2022/08/20 13:06:22;;;;;;;17.55;15.40;;;27.70;59.40;;;;;;4920832;52;21014;-36
2022/08/20 13:11:23;;;;;;;19.08;16.27;;;27.70;59.40;;;;;;4909614;56;21051;-33
2022/08/20 13:16:24;;;;;;;20.80;15.55;;;27.70;59.50;;;;;;4910183;56;20987;-37
2022/08/20 13:21:25;;;;;;;20.88;15.35;;;27.70;59.40;;;;;;4935841;52;20991;-29
2022/08/20 13:26:26;;;;;;;19.67;15.48;;;27.70;59.50;;;;;;4930996;52;21449;-37
2022/08/20 13:31:27;;;;;;;19.73;15.35;;;27.70;59.40;;;;;;5015306;52;20964;-35
2022/08/20 13:36:28;;;;;;;17.55;14.87;;;27.70;59.40;;;;;;4939869;52;21581;-33
2022/08/20 13:41:29;;;;;;;16.75;14.77;;;27.70;59.40;;;;;;4909871;56;21027;-36
2022/08/20 13:46:30;;;;;;;16.20;14.40;;;27.70;59.40;;;;;;4950101;52;20983;-31
2022/08/20 13:51:31;;;;;;;18.35;14.73;;;27.70;59.30;;;;;;4973893;52;20987;-34
2022/08/20 13:56:31;;;;;;;18.15;15.10;;;27.70;59.40;;;;;;4926907;52;20951;-37
2022/08/20 14:01:32;;;;;;;16.08;14.30;;;27.70;59.40;;;;;;4933549;52;20964;-42
2022/08/20 14:06:33;;;;;;;18.27;14.75;;;27.70;59.30;;;;;;4929548;52;20975;-30
2022/08/20 14:11:34;;;;;;;18.95;15.38;;;27.70;59.70;;;;;;4914883;52;21062;-25
2022/08/20 14:16:38;;;;;;;16.65;13.95;;;27.70;59.30;;;;;;4910069;56;21038;-25
2022/08/20 14:21:39;;;;;;;18.50;14.68;;;27.70;59.40;;;;;;4941647;52;22282;-37
2022/08/20 14:26:40;;;;;;;18.42;13.55;;;27.70;59.40;;;;;;4910746;52;21027;-33
2022/08/20 14:31:41;;;;;;;16.27;14.05;;;27.70;59.40;;;;;;4909521;56;20975;-27
2022/08/20 14:36:41;;;;;;;15.98;14.15;;;27.70;59.40;;;;;;4910008;56;21074;-31
2022/08/20 14:41:42;;;;;;;19.65;14.75;;;27.70;59.40;;;;;;4912229;52;20967;-35
2022/08/20 14:46:43;;;;;;;19.40;14.70;;;27.70;59.40;;;;;;4932084;52;21528;-37
2022/08/20 14:51:44;;;;;;;16.98;13.73;;;27.70;59.40;;;;;;4921129;52;20979;-34
2022/08/20 14:56:45;;;;;;;16.58;14.75;;;27.70;59.40;;;;;;4933793;52;20960;-32
2022/08/20 15:01:45;;;;;;;18.60;14.65;;;27.70;59.40;;;;;;4933395;52;21046;-33
2022/08/20 15:06:47;;;;;;;18.17;14.60;;;27.70;59.40;;;;;;4949335;52;21011;-27
2022/08/20 15:11:48;;;;;;;18.48;14.95;;;27.70;59.40;;;;;;4936438;52;21055;-27
2022/08/20 15:16:49;;;;;;;17.65;15.32;;;27.70;59.40;;;;;;4909365;56;20991;-26
2022/08/20 15:21:49;;;;;;;18.10;14.90;;;27.70;59.50;;;;;;4923510;52;21035;-26
2022/08/20 15:26:50;;;;;;;18.55;15.10;;;27.70;59.40;;;;;;4936526;52;21454;-26
2022/08/20 15:31:51;;;;;;;17.27;15.10;;;27.70;59.40;;;;;;4941005;52;22506;-35
2022/08/20 15:36:52;;;;;;;17.05;14.57;;;27.70;59.40;;;;;;4916669;52;21034;-38
2022/08/20 15:41:52;;;;;;;17.17;14.10;;;27.70;59.40;;;;;;4964379;52;20984;-28
2022/08/20 15:46:53;;;;;;;17.70;14.23;;;27.70;59.40;;;;;;4910356;52;21034;-33
2022/08/20 15:51:54;;;;;;;18.15;14.82;;;27.70;59.40;;;;;;4947635;52;21010;-30
2022/08/20 16:04:08;;;;;;;19.20;14.40;;;27.70;59.40;;;;;;4912078;52;21015;-28
2022/08/20 16:09:27;;;;;;;17.85;14.38;;;27.70;59.50;;;;;;4922668;52;21094;-35
2022/08/20 16:14:35;;;;;;;17.85;14.98;;;27.70;59.50;;;;;;4909458;52;21047;-36
2022/08/20 16:20:25;;;;;;;16.60;14.25;;;27.70;59.50;;;;;;4932304;52;21106;-28
2022/08/20 16:25:33;;;;;;;20.25;15.95;;;27.70;59.50;;;;;;4922160;52;21007;-34
2022/08/20 16:30:46;;;;;;;17.87;14.38;;;27.70;59.50;;;;;;4924133;52;21039;-29
2022/08/20 16:35:57;;;;;;;16.95;15.13;;;27.70;59.50;;;;;;4934633;52;21007;-26
2022/08/20 16:41:06;;;;;;;16.60;14.90;;;27.70;59.50;;;;;;4909859;56;20975;-35
2022/08/20 16:46:27;;;;;;;16.98;15.05;;;27.70;59.60;;;;;;4916479;52;20979;-36
2022/08/20 16:51:38;;;;;;;15.50;13.85;;;27.70;59.60;;;;;;4957420;52;20974;-33
2022/08/20 16:56:46;;;;;;;17.02;14.23;;;27.70;59.50;;;;;;4910370;53;20980;-26
2022/08/20 17:02:04;;;;;;;15.90;14.23;;;27.70;59.60;;;;;;4910158;52;21034;-37
2022/08/20 17:07:05;;;;;;;16.85;14.77;;;27.70;59.60;;;;;;4991507;52;21007;-37
2022/08/20 17:12:21;;;;;;;16.10;14.32;;;27.70;59.60;;;;;;4973744;52;21050;-37
2022/08/20 17:17:26;;;;;;;17.23;14.55;;;27.70;59.60;;;;;;4913752;52;20975;-34
2022/08/20 17:22:29;;;;;;;16.85;14.75;;;27.70;59.60;;;;;;4922265;52;20987;-37
2022/08/20 17:27:39;;;;;;;16.60;14.45;;;27.70;59.60;;;;;;4934075;52;21067;-27
2022/08/20 17:34:02;;;;;;;18.25;14.68;;;27.70;59.70;;;;;;4946657;52;21438;-35
2022/08/20 17:39:13;;;;;;;17.87;14.45;;;27.70;59.70;;;;;;4912924;52;21039;-35
2022/08/20 17:44:41;;;;;;;17.40;14.68;;;27.70;59.70;;;;;;4910747;52;20999;-34
2022/08/20 17:49:54;;;;;;;16.40;14.60;;;27.70;59.70;;;;;;4920150;52;21022;-29
2022/08/20 17:54:56;;;;;;;17.55;14.60;;;27.70;59.70;;;;;;4932514;52;21023;-37
2022/08/20 18:00:05;;;;;;;18.12;14.87;;;27.70;59.70;;;;;;4910208;56;21461;-37
2022/08/20 18:05:14;;;;;;;17.55;14.73;;;27.70;59.70;;;;;;4926049;52;20979;-37
2022/08/20 18:10:21;;;;;;;16.52;14.60;;;27.70;59.80;;;;;;4909174;56;21087;-36
2022/08/20 18:15:23;;;;;;;;;;;27.70;59.80;;;;;;4913192;56;20995;-37
2022/08/20 18:21:54;;;;;;;17.15;14.65;;;27.70;59.80;;;;;;4914908;52;20085;-38
2022/08/20 18:27:01;;;;;;;16.62;14.82;;;27.70;60.10;;;;;;4909728;53;21054;-33
2022/08/20 18:32:19;;;;;;;17.33;15.35;;;27.70;59.90;;;;;;5037759;52;21035;-33
2022/08/20 18:37:26;;;;;;;16.67;14.75;;;27.70;59.90;;;;;;4971431;52;20975;-35
2022/08/20 18:42:35;;;;;;;17.25;14.40;;;27.70;59.90;;;;;;4971053;52;21557;-35
2022/08/20 18:47:43;;;;;;;16.35;14.25;;;27.70;60.00;;;;;;4927721;52;21572;-33
2022/08/20 18:53:15;;;;;;;18.33;14.40;;;27.70;60.00;;;;;;4916794;52;20979;-39
2022/08/20 18:58:38;;;;;;;17.83;14.00;;;27.70;60.10;;;;;;4933008;52;21489;-34
2022/08/20 19:03:46;;;;;;;16.02;13.57;;;27.70;60.20;;;;;;4918512;52;20972;-25
2022/08/20 19:09:03;;;;;;;18.30;14.45;;;27.70;60.10;;;;;;4950014;52;21660;-26
2022/08/20 19:14:39;;;;;;;16.05;14.18;;;27.70;60.20;;;;;;4909590;56;21027;-37
2022/08/20 19:19:40;;;;;;;19.35;14.77;;;27.70;60.30;;;;;;4944300;52;21095;-35
2022/08/20 19:24:43;;;;;;;18.85;13.98;;;27.60;60.20;;;;;;4930227;52;21075;-27
2022/08/20 19:29:48;;;;;;;17.52;13.75;;;27.70;60.30;;;;;;4944395;52;21471;-36
2022/08/20 19:34:52;;;;;;;16.05;14.45;;;27.70;60.50;;;;;;4950521;52;20988;-27
2022/08/20 19:39:54;;;;;;;16.12;13.48;;;27.70;60.40;;;;;;4970176;52;21053;-41
2022/08/20 19:45:06;;;;;;;17.10;13.90;;;27.70;60.40;;;;;;4910846;52;20999;-31
2022/08/20 19:50:30;;;;;;;17.65;14.35;;;27.70;60.50;;;;;;4941304;52;21007;-35
2022/08/20 19:55:35;;;;;;;15.65;13.73;;;27.60;60.40;;;;;;4941449;52;21046;-34
2022/08/20 20:00:55;;;;;;;14.73;12.50;;;27.70;60.40;;;;;;4927037;52;21024;-31
2022/08/20 20:05:59;;;;;;;16.23;13.20;;;27.60;61.00;;;;;;4912705;52;21465;-37
2022/08/20 20:11:00;;;;;;;16.52;13.65;;;27.70;60.40;;;;;;4909134;56;21015;-25
2022/08/20 20:16:03;;;;;;;15.50;13.10;;;27.60;60.30;;;;;;4921471;52;20987;-26
2022/08/20 20:21:22;;;;;;;15.80;12.85;;;27.60;60.30;;;;;;4930370;52;21034;-35
2022/08/20 20:26:27;;;;;;;14.23;12.80;;;27.60;60.30;;;;;;4943299;52;21321;-25
2022/08/20 20:31:31;;;;;;;14.07;12.60;;;27.60;60.30;;;;;;4954287;52;21043;-37
2022/08/20 20:36:36;;;;;;;13.77;11.98;;;27.60;60.30;;;;;;4968096;52;20979;-32
2022/08/20 20:41:37;;;;;;;14.25;12.40;;;27.60;60.20;;;;;;4926908;52;21022;-34
2022/08/20 20:46:38;;;;;;;14.50;12.80;;;27.60;60.20;;;;;;4914903;52;21011;-30
2022/08/20 20:51:43;;;;;;;13.70;12.30;;;27.60;60.20;;;;;;4938716;52;21059;-33
2022/08/20 20:57:03;;;;;;;14.75;12.15;;;27.60;60.20;;;;;;4964628;52;21578;-38
2022/08/20 21:02:04;;;;;;;13.57;12.18;;;27.60;60.20;;;;;;4910083;52;21453;-36
2022/08/20 21:07:09;;;;;;;13.10;11.40;;;27.60;60.20;;;;;;4926834;52;21055;-36
2022/08/20 21:12:11;;;;;;;14.32;12.35;;;27.60;60.20;;;;;;4909355;56;21063;-35
2022/08/20 21:17:15;;;;;;;13.05;11.68;;;27.60;60.20;;;;;;4960625;52;20976;-39
2022/08/20 21:22:17;;;;;;;12.68;11.38;;;27.60;60.20;;;;;;4937892;52;20999;-35
2022/08/20 21:27:25;;;;;;;13.18;11.77;;;27.60;60.20;;;;;;4911243;52;21102;-32
2022/08/20 21:32:27;;;;;;;12.37;11.07;;;27.60;60.20;;;;;;4975155;52;21027;-37
2022/08/20 21:37:28;;;;;;;11.98;10.40;;;27.60;60.10;;;;;;4954926;52;20991;-34
2022/08/20 21:42:29;;;;;;;13.57;10.95;;;27.60;60.10;;;;;;4909991;56;21003;-35
2022/08/20 21:47:29;;;;;;;11.55;10.35;;;27.60;60.20;;;;;;4916213;52;21489;-37
2022/08/20 21:52:31;;;;;;;12.37;11.07;;;27.60;60.20;;;;;;4910137;56;21007;-34
2022/08/20 21:57:33;;;;;;;12.10;10.88;;;27.60;60.20;;;;;;4910823;52;21007;-33
2022/08/20 22:02:34;;;;;;;13.82;10.80;;;27.60;60.10;;;;;;4985934;52;21022;-34
2022/08/20 22:07:36;;;;;;;12.73;11.02;;;27.60;60.10;;;;;;4918875;52;20983;-31
2022/08/20 22:12:37;;;;;;;11.65;10.38;;;27.60;60.10;;;;;;4932672;52;21008;-34
2022/08/20 22:17:38;;;;;;;12.30;10.82;;;27.60;60.10;;;;;;4909928;56;21449;-34
2022/08/20 22:22:39;;;;;;;12.27;10.55;;;27.60;60.20;;;;;;4924453;52;21036;-25
2022/08/20 22:27:39;;;;;;;12.57;10.45;;;27.60;60.20;;;;;;4969717;52;21019;-36
2022/08/20 22:32:40;;;;;;;13.38;10.38;;;27.60;60.10;;;;;;4913324;52;21015;-37
2022/08/20 22:37:41;;;;;;;11.23;9.57;;;27.60;60.10;;;;;;4924382;52;20979;-34
2022/08/20 22:42:42;;;;;;;10.90;9.82;;;27.60;60.10;;;;;;4916531;52;22228;-32
2022/08/20 22:47:43;;;;;;;11.40;10.20;;;27.60;59.60;;;;;;4928004;52;21079;-38
2022/08/20 22:52:44;;;;;;;12.25;10.10;;;27.60;60.10;;;;;;4910142;56;21084;-27
2022/08/20 22:57:45;;;;;;;11.55;9.98;;;27.60;60.20;;;;;;4911079;52;21055;-37
2022/08/20 23:02:51;;;;;;;10.35;9.35;;;27.60;60.10;;;;;;4954131;52;21074;-30
2022/08/20 23:07:55;;;;;;;10.43;9.32;;;27.60;60.20;;;;;;4959035;52;20999;-33
2022/08/20 23:12:57;;;;;;;10.75;9.63;;;27.60;60.10;;;;;;4923801;52;21142;-35
2022/08/20 23:18:03;;;;;;;10.73;9.63;;;27.60;60.20;;;;;;4919595;52;21414;-37
2022/08/20 23:23:04;;;;;;;10.98;9.68;;;27.60;60.10;;;;;;4921657;52;20983;-38
2022/08/20 23:28:05;;;;;;;10.60;9.50;;;27.60;60.20;;;;;;4957913;52;21023;-26
2022/08/20 23:33:06;;;;;;;11.57;9.90;;;27.60;60.10;;;;;;4910783;52;21002;-38
2022/08/20 23:38:07;;;;;;;10.52;9.43;;;27.60;60.20;;;;;;4927540;52;20984;-37
2022/08/20 23:43:09;;;;;;;10.25;9.23;;;27.60;60.20;;;;;;4938594;52;21062;-36
2022/08/20 23:48:09;;;;;;;10.57;9.48;;;27.60;60.20;;;;;;4930613;52;20990;-32
2022/08/20 23:53:10;;;;;;;9.88;8.88;;;27.60;60.20;;;;;;4939417;52;21086;-40
2022/08/20 23:58:11;;;;;;;10.65;9.55;;;27.60;60.20;;;;;;4928622;52;20991;-32
